createdAt,value
2017-11-04T00:00:37.117Z,9.19
2017-11-04T00:01:37.116Z,9.14
2017-11-04T00:02:37.117Z,9.18
2017-11-04T00:03:37.115Z,9.11
2017-11-04T00:04:37.115Z,9.10
2017-11-04T00:05:37.123Z,9.08
2017-11-04T00:06:37.117Z,9.14
2017-11-04T00:07:37.125Z,9.10
2017-11-04T00:08:37.122Z,9.15
2017-11-04T00:09:37.122Z,9.06
2017-11-04T00:10:37.121Z,9.05
2017-11-04T00:11:37.126Z,9.06
2017-11-04T00:12:37.129Z,9.15
2017-11-04T00:13:37.124Z,9.08
2017-11-04T00:14:37.129Z,9.08
2017-11-04T00:15:37.125Z,9.10
2017-11-04T00:16:37.129Z,9.14
2017-11-04T00:17:37.125Z,8.98
2017-11-04T00:18:37.128Z,9.14
2017-11-04T00:19:37.152Z,9.11
2017-11-04T00:20:37.132Z,9.11
2017-11-04T00:21:37.131Z,8.99
2017-11-04T00:22:37.130Z,9.06
2017-11-04T00:23:37.133Z,8.99
2017-11-04T00:24:37.136Z,9.06
2017-11-04T00:25:37.137Z,9.06
2017-11-04T00:26:37.133Z,8.98
2017-11-04T00:27:37.145Z,9.02
2017-11-04T00:28:37.135Z,9.06
2017-11-04T00:29:37.136Z,8.98
2017-11-04T00:30:37.136Z,9.06
2017-11-04T00:31:37.133Z,8.98
2017-11-04T00:32:37.142Z,8.99
2017-11-04T00:33:37.136Z,8.96
2017-11-04T00:34:37.154Z,9.00
2017-11-04T00:35:37.143Z,9.02
2017-11-04T00:36:37.141Z,9.02
2017-11-04T00:37:37.143Z,9.02
2017-11-04T00:38:37.145Z,8.99
2017-11-04T00:39:37.139Z,8.96
2017-11-04T00:40:37.143Z,8.98
2017-11-04T00:41:37.141Z,8.98
2017-11-04T00:42:37.141Z,8.95
2017-11-04T00:43:37.142Z,9.00
2017-11-04T00:44:37.144Z,8.88
2017-11-04T00:45:37.149Z,8.93
2017-11-04T00:46:37.142Z,8.95
2017-11-04T00:47:37.145Z,8.93
2017-11-04T00:48:37.151Z,8.88
2017-11-04T00:49:37.145Z,8.91
2017-11-04T00:50:37.156Z,8.91
2017-11-04T00:51:37.142Z,8.91
2017-11-04T00:52:37.153Z,8.87
2017-11-04T00:53:37.151Z,8.88
2017-11-04T00:54:37.153Z,8.88
2017-11-04T00:55:37.154Z,8.85
2017-11-04T00:56:37.150Z,8.84
2017-11-04T00:57:37.161Z,8.93
2017-11-04T00:58:37.160Z,8.85
2017-11-04T00:59:37.151Z,8.82
2017-11-04T01:00:37.152Z,8.93
2017-11-04T01:01:37.155Z,8.88
2017-11-04T01:02:37.151Z,8.91
2017-11-04T01:03:37.155Z,8.90
2017-11-04T01:04:37.159Z,8.78
2017-11-04T01:05:37.155Z,8.87
2017-11-04T01:06:37.161Z,8.80
2017-11-04T01:07:37.161Z,8.80
2017-11-04T01:08:37.159Z,8.91
2017-11-04T01:09:37.162Z,8.82
2017-11-04T01:10:37.167Z,8.85
2017-11-04T01:11:37.159Z,8.78
2017-11-04T01:12:37.162Z,8.90
2017-11-04T01:13:37.157Z,8.82
2017-11-04T01:14:37.171Z,8.85
2017-11-04T01:15:37.171Z,8.78
2017-11-04T01:16:37.161Z,8.81
2017-11-04T01:17:37.164Z,8.82
2017-11-04T01:18:37.171Z,8.75
2017-11-04T01:19:37.163Z,8.82
2017-11-04T01:20:37.165Z,8.78
2017-11-04T01:21:37.170Z,8.85
2017-11-04T01:22:37.179Z,8.78
2017-11-04T01:23:37.167Z,8.81
2017-11-04T01:24:37.211Z,8.82
2017-11-04T01:25:37.169Z,8.77
2017-11-04T01:26:37.184Z,8.85
2017-11-04T01:27:37.174Z,8.80
2017-11-04T01:28:37.170Z,8.88
2017-11-04T01:29:37.171Z,8.88
2017-11-04T01:30:37.172Z,8.78
2017-11-04T01:31:37.172Z,8.82
2017-11-04T01:32:37.171Z,8.90
2017-11-04T01:33:37.172Z,8.91
2017-11-04T01:34:37.172Z,8.90
2017-11-04T01:35:37.172Z,8.93
2017-11-04T01:36:37.173Z,8.80
2017-11-04T01:37:37.182Z,8.78
2017-11-04T01:38:37.176Z,8.91
2017-11-04T01:39:37.181Z,8.87
2017-11-04T01:40:37.181Z,8.80
2017-11-04T01:41:37.181Z,8.87
2017-11-04T01:42:37.181Z,8.91
2017-11-04T01:43:37.180Z,8.80
2017-11-04T01:44:37.187Z,8.90
2017-11-04T01:45:37.182Z,8.77
2017-11-04T01:46:37.182Z,8.80
2017-11-04T01:47:37.179Z,8.78
2017-11-04T01:48:37.181Z,8.80
2017-11-04T01:49:37.183Z,8.84
2017-11-04T01:50:37.178Z,8.81
2017-11-04T01:51:37.181Z,8.82
2017-11-04T01:52:37.183Z,8.81
2017-11-04T01:53:37.183Z,8.73
2017-11-04T01:54:37.180Z,8.82
2017-11-04T01:55:37.190Z,8.80
2017-11-04T01:56:37.190Z,8.78
2017-11-04T01:57:37.190Z,8.85
2017-11-04T01:58:37.190Z,8.82
2017-11-04T01:59:37.194Z,8.75
2017-11-04T02:00:37.194Z,8.80
2017-11-04T02:01:37.196Z,8.73
2017-11-04T02:02:37.198Z,8.80
2017-11-04T02:03:37.192Z,8.77
2017-11-04T02:04:37.193Z,8.78
2017-11-04T02:05:37.195Z,8.77
2017-11-04T02:06:37.191Z,8.78
2017-11-04T02:07:37.190Z,8.77
2017-11-04T02:08:37.191Z,8.73
2017-11-04T02:09:37.195Z,8.80
2017-11-04T02:10:37.195Z,8.78
2017-11-04T02:11:37.195Z,8.82
2017-11-04T02:12:37.191Z,8.75
2017-11-04T02:13:37.198Z,8.75
2017-11-04T02:14:37.200Z,8.88
2017-11-04T02:15:37.193Z,8.78
2017-11-04T02:16:37.201Z,8.78
2017-11-04T02:17:37.200Z,8.82
2017-11-04T02:18:37.198Z,8.80
2017-11-04T02:19:37.196Z,8.77
2017-11-04T02:20:37.201Z,8.81
2017-11-04T02:21:37.199Z,8.84
2017-11-04T02:22:37.202Z,8.78
2017-11-04T02:23:37.199Z,8.75
2017-11-04T02:24:37.201Z,8.73
2017-11-04T02:25:37.200Z,8.78
2017-11-04T02:26:37.200Z,8.78
2017-11-04T02:27:37.208Z,8.80
2017-11-04T02:28:37.201Z,8.81
2017-11-04T02:29:37.201Z,8.73
2017-11-04T02:30:37.202Z,8.75
2017-11-04T02:31:37.210Z,8.72
2017-11-04T02:32:37.205Z,8.77
2017-11-04T02:33:37.211Z,8.77
2017-11-04T02:34:37.219Z,8.80
2017-11-04T02:35:37.208Z,8.80
2017-11-04T02:36:37.208Z,8.84
2017-11-04T02:37:37.208Z,8.78
2017-11-04T02:38:37.207Z,8.75
2017-11-04T02:39:37.208Z,8.84
2017-11-04T02:40:37.206Z,8.80
2017-11-04T02:41:37.288Z,8.81
2017-11-04T02:42:37.209Z,8.80
2017-11-04T02:43:37.207Z,8.81
2017-11-04T02:44:37.211Z,8.75
2017-11-04T02:45:37.217Z,8.82
2017-11-04T02:46:37.210Z,8.75
2017-11-04T02:47:37.211Z,8.78
2017-11-04T02:48:37.218Z,8.72
2017-11-04T02:49:37.215Z,8.77
2017-11-04T02:50:37.219Z,8.77
2017-11-04T02:51:37.210Z,8.82
2017-11-04T02:52:37.221Z,8.75
2017-11-04T02:53:37.212Z,8.78
2017-11-04T02:54:37.211Z,8.73
2017-11-04T02:55:37.230Z,8.70
2017-11-04T02:56:37.219Z,8.72
2017-11-04T02:57:37.218Z,8.78
2017-11-04T02:58:37.214Z,8.77
2017-11-04T02:59:37.220Z,8.75
2017-11-04T03:00:37.219Z,8.72
2017-11-04T03:01:37.218Z,8.70
2017-11-04T03:02:37.221Z,8.77
2017-11-04T03:03:37.224Z,8.69
2017-11-04T03:04:37.230Z,8.66
2017-11-04T03:05:37.222Z,8.73
2017-11-04T03:06:37.223Z,8.69
2017-11-04T03:07:37.221Z,8.70
2017-11-04T03:08:37.221Z,8.73
2017-11-04T03:09:37.220Z,8.77
2017-11-04T03:10:37.222Z,8.73
2017-11-04T03:11:37.224Z,8.80
2017-11-04T03:12:37.221Z,8.77
2017-11-04T03:13:37.232Z,8.72
2017-11-04T03:14:37.220Z,8.72
2017-11-04T03:15:37.228Z,8.66
2017-11-04T03:16:37.228Z,8.77
2017-11-04T03:17:37.225Z,8.72
2017-11-04T03:18:37.224Z,8.62
2017-11-04T03:19:37.234Z,8.66
2017-11-04T03:20:37.227Z,8.60
2017-11-04T03:21:37.228Z,8.75
2017-11-04T03:22:37.228Z,8.67
2017-11-04T03:23:37.235Z,8.67
2017-11-04T03:24:37.228Z,8.63
2017-11-04T03:25:37.230Z,8.63
2017-11-04T03:26:37.229Z,8.69
2017-11-04T03:27:37.252Z,8.63
2017-11-04T03:28:37.236Z,8.70
2017-11-04T03:29:37.257Z,8.62
2017-11-04T03:30:37.236Z,8.60
2017-11-04T03:31:37.242Z,8.69
2017-11-04T03:32:37.240Z,8.63
2017-11-04T03:33:37.235Z,8.62
2017-11-04T03:34:37.233Z,8.62
2017-11-04T03:35:37.239Z,8.67
2017-11-04T03:36:37.237Z,8.67
2017-11-04T03:37:37.239Z,8.63
2017-11-04T03:38:37.238Z,8.67
2017-11-04T03:39:37.232Z,8.64
2017-11-04T03:40:37.240Z,8.66
2017-11-04T03:41:37.242Z,8.66
2017-11-04T03:42:37.243Z,8.62
2017-11-04T03:43:37.245Z,8.63
2017-11-04T03:44:37.239Z,8.59
2017-11-04T03:45:37.255Z,8.62
2017-11-04T03:46:37.243Z,8.60
2017-11-04T03:47:37.236Z,8.60
2017-11-04T03:48:37.240Z,8.57
2017-11-04T03:49:37.244Z,8.57
2017-11-04T03:50:37.243Z,8.48
2017-11-04T03:51:37.240Z,8.52
2017-11-04T03:52:37.240Z,8.51
2017-11-04T03:53:37.241Z,8.54
2017-11-04T03:54:37.240Z,8.49
2017-11-04T03:55:37.243Z,8.55
2017-11-04T03:56:37.247Z,8.55
2017-11-04T03:57:37.240Z,8.55
2017-11-04T03:58:37.249Z,8.54
2017-11-04T03:59:37.241Z,8.49
2017-11-04T04:00:37.246Z,8.52
2017-11-04T04:01:37.246Z,8.52
2017-11-04T04:02:37.247Z,8.41
2017-11-04T04:03:37.253Z,8.39
2017-11-04T04:04:37.247Z,8.39
2017-11-04T04:05:37.251Z,8.44
2017-11-04T04:06:37.254Z,8.41
2017-11-04T04:07:37.248Z,8.39
2017-11-04T04:08:37.246Z,8.42
2017-11-04T04:09:37.247Z,8.45
2017-11-04T04:10:37.247Z,8.34
2017-11-04T04:11:37.249Z,8.34
2017-11-04T04:12:37.249Z,8.39
2017-11-04T04:13:37.249Z,8.30
2017-11-04T04:14:37.254Z,8.38
2017-11-04T04:15:37.249Z,8.33
2017-11-04T04:16:37.252Z,8.29
2017-11-04T04:17:37.250Z,8.30
2017-11-04T04:18:37.249Z,8.27
2017-11-04T04:19:37.254Z,8.20
2017-11-04T04:20:37.250Z,8.20
2017-11-04T04:21:37.257Z,8.24
2017-11-04T04:22:37.274Z,8.23
2017-11-04T04:23:37.252Z,8.18
2017-11-04T04:24:37.252Z,8.23
2017-11-04T04:25:37.259Z,8.20
2017-11-04T04:26:37.252Z,8.18
2017-11-04T04:27:37.262Z,8.21
2017-11-04T04:28:37.266Z,8.12
2017-11-04T04:29:37.259Z,8.23
2017-11-04T04:30:37.256Z,8.12
2017-11-04T04:31:37.260Z,8.09
2017-11-04T04:32:37.261Z,8.11
2017-11-04T04:33:37.257Z,8.11
2017-11-04T04:34:37.258Z,8.05
2017-11-04T04:35:37.265Z,7.94
2017-11-04T04:36:37.263Z,8.08
2017-11-04T04:37:37.257Z,7.97
2017-11-04T04:38:37.257Z,7.97
2017-11-04T04:39:37.258Z,7.88
2017-11-04T04:40:37.258Z,7.86
2017-11-04T04:41:37.260Z,7.93
2017-11-04T04:42:37.256Z,7.86
2017-11-04T04:43:37.260Z,7.83
2017-11-04T04:44:37.264Z,7.83
2017-11-04T04:45:37.260Z,7.84
2017-11-04T04:46:37.260Z,7.73
2017-11-04T04:47:37.259Z,7.73
2017-11-04T04:48:37.264Z,7.78
2017-11-04T04:49:37.255Z,7.68
2017-11-04T04:50:37.261Z,7.72
2017-11-04T04:51:44.024Z,7.64
2017-11-04T04:52:37.260Z,7.57
2017-11-04T04:53:37.260Z,7.59
2017-11-04T04:54:37.257Z,7.62
2017-11-04T04:55:37.261Z,7.52
2017-11-04T04:56:37.259Z,7.56
2017-11-04T04:57:37.261Z,7.49
2017-11-04T04:58:37.274Z,7.44
2017-11-04T04:59:37.257Z,7.54
2017-11-04T05:00:37.266Z,7.47
2017-11-04T05:01:37.265Z,7.49
2017-11-04T05:02:37.277Z,7.49
2017-11-04T05:03:37.257Z,7.36
2017-11-04T05:04:37.255Z,7.42
2017-11-04T05:05:37.266Z,7.42
2017-11-04T05:06:37.257Z,7.39
2017-11-04T05:07:37.277Z,7.47
2017-11-04T05:08:37.263Z,7.44
2017-11-04T05:09:37.254Z,7.44
2017-11-04T05:10:37.253Z,7.41
2017-11-04T05:11:37.261Z,7.41
2017-11-04T05:12:37.261Z,7.49
2017-11-04T05:13:37.260Z,7.38
2017-11-04T05:14:37.266Z,7.41
2017-11-04T05:15:37.256Z,7.41
2017-11-04T05:16:37.265Z,7.44
2017-11-04T05:17:37.255Z,7.42
2017-11-04T05:18:37.253Z,7.42
2017-11-04T05:19:37.257Z,7.41
2017-11-04T05:20:37.254Z,7.36
2017-11-04T05:21:37.252Z,7.35
2017-11-04T05:22:37.253Z,7.34
2017-11-04T05:23:37.253Z,7.34
2017-11-04T05:24:37.253Z,7.29
2017-11-04T05:25:37.259Z,7.31
2017-11-04T05:26:37.256Z,7.29
2017-11-04T05:27:37.250Z,7.28
2017-11-04T05:28:37.250Z,7.25
2017-11-04T05:29:37.254Z,7.29
2017-11-04T05:30:37.249Z,7.23
2017-11-04T05:31:37.252Z,7.28
2017-11-04T05:32:37.253Z,7.31
2017-11-04T05:33:37.253Z,7.26
2017-11-04T05:34:37.245Z,7.21
2017-11-04T05:35:37.246Z,7.16
2017-11-04T05:36:37.246Z,7.14
2017-11-04T05:37:37.246Z,7.17
2017-11-04T05:38:37.246Z,7.17
2017-11-04T05:39:37.246Z,7.14
2017-11-04T05:40:37.250Z,7.21
2017-11-04T05:41:37.245Z,7.18
2017-11-04T05:42:37.250Z,7.18
2017-11-04T05:43:37.244Z,7.13
2017-11-04T05:44:37.268Z,7.03
2017-11-04T05:45:37.246Z,7.11
2017-11-04T05:46:37.253Z,7.11
2017-11-04T05:47:37.249Z,7.11
2017-11-04T05:48:37.246Z,7.07
2017-11-04T05:49:37.253Z,7.08
2017-11-04T05:50:37.242Z,7.08
2017-11-04T05:51:37.245Z,7.08
2017-11-04T05:52:37.240Z,6.92
2017-11-04T05:53:37.239Z,6.98
2017-11-04T05:54:37.240Z,6.93
2017-11-04T05:55:37.267Z,6.99
2017-11-04T05:56:37.243Z,6.93
2017-11-04T05:57:37.245Z,6.96
2017-11-04T05:58:37.239Z,7.00
2017-11-04T05:59:37.238Z,6.98
2017-11-04T06:00:37.240Z,6.93
2017-11-04T06:01:37.239Z,6.93
2017-11-04T06:02:37.239Z,6.92
2017-11-04T06:03:37.244Z,6.89
2017-11-04T06:04:37.250Z,6.93
2017-11-04T06:05:37.241Z,6.83
2017-11-04T06:06:37.252Z,6.84
2017-11-04T06:07:37.243Z,6.84
2017-11-04T06:08:37.244Z,6.84
2017-11-04T06:09:37.240Z,6.85
2017-11-04T06:10:37.236Z,6.83
2017-11-04T06:11:37.241Z,6.80
2017-11-04T06:12:37.234Z,6.84
2017-11-04T06:13:37.234Z,6.95
2017-11-04T06:14:37.240Z,6.95
2017-11-04T06:15:37.232Z,6.91
2017-11-04T06:16:37.230Z,6.83
2017-11-04T06:17:37.232Z,6.84
2017-11-04T06:18:37.225Z,6.83
2017-11-04T06:19:37.239Z,6.85
2017-11-04T06:20:37.227Z,6.88
2017-11-04T06:21:37.227Z,6.91
2017-11-04T06:22:37.226Z,6.83
2017-11-04T06:23:37.227Z,6.78
2017-11-04T06:24:37.233Z,6.84
2017-11-04T06:25:37.233Z,6.83
2017-11-04T06:26:37.227Z,6.88
2017-11-04T06:27:37.227Z,6.89
2017-11-04T06:28:37.222Z,6.78
2017-11-04T06:29:37.223Z,6.81
2017-11-04T06:30:37.221Z,6.85
2017-11-04T06:31:37.223Z,6.77
2017-11-04T06:32:37.225Z,6.78
2017-11-04T06:33:37.219Z,6.77
2017-11-04T06:34:37.219Z,6.78
2017-11-04T06:35:37.219Z,6.73
2017-11-04T06:36:37.223Z,6.66
2017-11-04T06:37:37.219Z,6.65
2017-11-04T06:38:37.218Z,6.67
2017-11-04T06:39:37.218Z,6.71
2017-11-04T06:40:37.219Z,6.66
2017-11-04T06:41:37.217Z,6.65
2017-11-04T06:42:37.212Z,6.74
2017-11-04T06:43:37.232Z,6.67
2017-11-04T06:44:37.210Z,6.65
2017-11-04T06:45:37.223Z,6.74
2017-11-04T06:46:37.216Z,6.66
2017-11-04T06:47:37.213Z,6.77
2017-11-04T06:48:37.211Z,6.67
2017-11-04T06:49:37.210Z,6.75
2017-11-04T06:50:37.214Z,6.74
2017-11-04T06:51:37.249Z,6.67
2017-11-04T06:52:37.214Z,6.70
2017-11-04T06:53:37.232Z,6.70
2017-11-04T06:54:37.204Z,6.73
2017-11-04T06:55:37.201Z,6.75
2017-11-04T06:56:37.209Z,6.66
2017-11-04T06:57:37.201Z,6.66
2017-11-04T06:58:37.204Z,6.70
2017-11-04T06:59:37.202Z,6.73
2017-11-04T07:00:37.198Z,6.81
2017-11-04T07:01:37.228Z,6.70
2017-11-04T07:02:37.203Z,6.73
2017-11-04T07:03:37.204Z,6.73
2017-11-04T07:04:37.203Z,6.83
2017-11-04T07:05:37.203Z,6.74
2017-11-04T07:06:37.194Z,6.70
2017-11-04T07:07:37.197Z,6.75
2017-11-04T07:08:37.193Z,6.77
2017-11-04T07:09:37.196Z,6.75
2017-11-04T07:10:37.191Z,6.77
2017-11-04T07:11:37.194Z,6.73
2017-11-04T07:12:37.192Z,6.80
2017-11-04T07:13:37.196Z,6.80
2017-11-04T07:14:37.193Z,6.81
2017-11-04T07:15:37.188Z,6.81
2017-11-04T07:16:37.192Z,6.80
2017-11-04T07:17:37.208Z,6.83
2017-11-04T07:18:37.187Z,6.81
2017-11-04T07:19:37.188Z,6.88
2017-11-04T07:20:37.196Z,6.78
2017-11-04T07:21:37.190Z,6.89
2017-11-04T07:22:37.189Z,6.93
2017-11-04T07:23:37.193Z,6.91
2017-11-04T07:24:37.181Z,6.81
2017-11-04T07:25:37.190Z,6.88
2017-11-04T07:26:37.185Z,6.84
2017-11-04T07:27:37.180Z,6.92
2017-11-04T07:28:37.184Z,6.96
2017-11-04T07:29:37.180Z,6.99
2017-11-04T07:30:37.180Z,6.89
2017-11-04T07:31:37.183Z,6.92
2017-11-04T07:32:37.182Z,7.07
2017-11-04T07:33:37.182Z,7.08
2017-11-04T07:34:37.175Z,7.10
2017-11-04T07:35:37.182Z,7.10
2017-11-04T07:36:37.178Z,7.10
2017-11-04T07:37:37.179Z,7.11
2017-11-04T07:38:37.178Z,7.17
2017-11-04T07:39:37.173Z,7.14
2017-11-04T07:40:37.172Z,7.14
2017-11-04T07:41:37.172Z,7.16
2017-11-04T07:42:37.175Z,7.17
2017-11-04T07:43:37.172Z,7.18
2017-11-04T07:44:37.172Z,7.18
2017-11-04T07:45:37.173Z,7.28
2017-11-04T07:46:37.174Z,7.25
2017-11-04T07:47:37.174Z,7.31
2017-11-04T07:48:37.173Z,7.32
2017-11-04T07:49:37.173Z,7.39
2017-11-04T07:50:37.168Z,7.44
2017-11-04T07:51:37.178Z,7.42
2017-11-04T07:52:37.172Z,7.53
2017-11-04T07:53:37.173Z,7.49
2017-11-04T07:54:37.175Z,7.50
2017-11-04T07:55:37.174Z,7.60
2017-11-04T07:56:37.166Z,7.52
2017-11-04T07:57:37.165Z,7.56
2017-11-04T07:58:37.163Z,7.54
2017-11-04T07:59:37.166Z,7.53
2017-11-04T08:00:37.167Z,7.60
2017-11-04T08:01:37.168Z,7.49
2017-11-04T08:02:37.164Z,7.64
2017-11-04T08:03:37.167Z,7.60
2017-11-04T08:04:37.164Z,7.62
2017-11-04T08:05:37.166Z,7.69
2017-11-04T08:06:37.164Z,7.75
2017-11-04T08:07:37.165Z,7.72
2017-11-04T08:08:37.163Z,7.72
2017-11-04T08:09:37.164Z,7.80
2017-11-04T08:10:37.164Z,7.75
2017-11-04T08:11:37.161Z,7.75
2017-11-04T08:12:37.164Z,7.72
2017-11-04T08:13:37.165Z,7.78
2017-11-04T08:14:37.165Z,7.75
2017-11-04T08:15:37.159Z,7.80
2017-11-04T08:16:37.163Z,7.83
2017-11-04T08:17:37.160Z,7.78
2017-11-04T08:18:37.160Z,7.80
2017-11-04T08:19:37.158Z,7.86
2017-11-04T08:20:37.159Z,7.84
2017-11-04T08:21:37.168Z,7.84
2017-11-04T08:22:37.161Z,7.87
2017-11-04T08:23:37.164Z,7.91
2017-11-04T08:24:37.161Z,7.94
2017-11-04T08:25:37.159Z,8.01
2017-11-04T08:26:37.163Z,8.04
2017-11-04T08:27:37.160Z,8.04
2017-11-04T08:28:37.163Z,8.05
2017-11-04T08:29:37.173Z,8.11
2017-11-04T08:30:37.165Z,8.12
2017-11-04T08:31:37.167Z,8.15
2017-11-04T08:32:37.161Z,8.15
2017-11-04T08:33:37.159Z,8.21
2017-11-04T08:34:37.160Z,8.24
2017-11-04T08:35:37.160Z,8.16
2017-11-04T08:36:37.163Z,8.24
2017-11-04T08:37:37.161Z,8.26
2017-11-04T08:38:37.173Z,8.21
2017-11-04T08:39:37.161Z,8.20
2017-11-04T08:40:37.162Z,8.21
2017-11-04T08:41:37.161Z,8.20
2017-11-04T08:42:37.167Z,8.18
2017-11-04T08:43:37.169Z,8.34
2017-11-04T08:44:37.164Z,8.34
2017-11-04T08:45:37.162Z,8.36
2017-11-04T08:46:37.161Z,8.30
2017-11-04T08:47:37.160Z,8.36
2017-11-04T08:48:37.161Z,8.38
2017-11-04T08:49:37.161Z,8.36
2017-11-04T08:50:37.162Z,8.36
2017-11-04T08:51:37.162Z,8.44
2017-11-04T08:52:37.163Z,8.44
2017-11-04T08:53:37.164Z,8.39
2017-11-04T08:54:37.164Z,8.47
2017-11-04T08:55:37.162Z,8.49
2017-11-04T08:56:37.162Z,8.54
2017-11-04T08:57:37.196Z,8.52
2017-11-04T08:58:37.160Z,8.51
2017-11-04T08:59:37.162Z,8.63
2017-11-04T09:00:37.162Z,8.55
2017-11-04T09:01:37.167Z,8.57
2017-11-04T09:02:37.163Z,8.64
2017-11-04T09:03:37.165Z,8.69
2017-11-04T09:04:37.163Z,8.62
2017-11-04T09:05:37.164Z,8.72
2017-11-04T09:06:37.161Z,8.77
2017-11-04T09:07:37.187Z,8.78
2017-11-04T09:08:37.169Z,8.69
2017-11-04T09:09:37.173Z,8.75
2017-11-04T09:10:37.162Z,8.73
2017-11-04T09:11:37.165Z,8.80
2017-11-04T09:12:37.167Z,8.67
2017-11-04T09:13:37.166Z,8.82
2017-11-04T09:14:37.166Z,8.85
2017-11-04T09:15:37.172Z,8.80
2017-11-04T09:16:37.168Z,8.73
2017-11-04T09:17:37.182Z,8.81
2017-11-04T09:18:37.178Z,8.73
2017-11-04T09:19:37.170Z,8.78
2017-11-04T09:20:37.180Z,8.80
2017-11-04T09:21:37.174Z,8.78
2017-11-04T09:22:37.171Z,8.82
2017-11-04T09:23:37.478Z,8.85
2017-11-04T09:24:37.174Z,8.95
2017-11-04T09:25:37.175Z,9.02
2017-11-04T09:26:37.173Z,8.95
2017-11-04T09:27:37.180Z,8.91
2017-11-04T09:28:37.173Z,9.03
2017-11-04T09:29:37.174Z,9.00
2017-11-04T09:30:37.177Z,9.02
2017-11-04T09:31:37.175Z,9.03
2017-11-04T09:32:37.181Z,9.05
2017-11-04T09:33:37.205Z,9.10
2017-11-04T09:34:37.182Z,9.14
2017-11-04T09:35:37.188Z,9.14
2017-11-04T09:36:37.182Z,9.15
2017-11-04T09:37:37.181Z,9.15
2017-11-04T09:38:37.179Z,9.16
2017-11-04T09:39:37.179Z,9.14
2017-11-04T09:40:37.182Z,9.19
2017-11-04T09:41:37.184Z,9.21
2017-11-04T09:42:37.184Z,9.19
2017-11-04T09:43:37.183Z,9.16
2017-11-04T09:44:37.183Z,9.19
2017-11-04T09:45:37.198Z,9.24
2017-11-04T09:46:37.191Z,9.28
2017-11-04T09:47:37.236Z,9.26
2017-11-04T09:48:37.186Z,9.26
2017-11-04T09:49:37.197Z,9.29
2017-11-04T09:50:37.187Z,9.22
2017-11-04T09:51:37.197Z,9.26
2017-11-04T09:52:37.191Z,9.19
2017-11-04T09:53:37.192Z,9.32
2017-11-04T09:54:37.188Z,9.29
2017-11-04T09:55:37.202Z,9.34
2017-11-04T09:56:37.204Z,9.29
2017-11-04T09:57:37.195Z,9.29
2017-11-04T09:58:37.191Z,9.37
2017-11-04T09:59:37.192Z,9.36
2017-11-04T10:00:37.192Z,9.39
2017-11-04T10:01:37.196Z,9.32
2017-11-04T10:02:37.198Z,9.33
2017-11-04T10:03:37.202Z,9.29
2017-11-04T10:04:37.200Z,9.37
2017-11-04T10:05:37.209Z,9.43
2017-11-04T10:06:37.202Z,9.51
2017-11-04T10:07:37.201Z,9.42
2017-11-04T10:08:37.200Z,9.51
2017-11-04T10:09:37.202Z,9.47
2017-11-04T10:10:37.207Z,9.54
2017-11-04T10:11:37.204Z,9.58
2017-11-04T10:12:37.250Z,9.52
2017-11-04T10:13:37.223Z,9.58
2017-11-04T10:14:37.297Z,9.61
2017-11-04T10:15:37.211Z,9.64
2017-11-04T10:16:37.209Z,9.59
2017-11-04T10:17:37.208Z,9.62
2017-11-04T10:18:37.211Z,9.62
2017-11-04T10:19:37.215Z,9.70
2017-11-04T10:20:37.216Z,9.69
2017-11-04T10:21:37.215Z,9.72
2017-11-04T10:22:37.218Z,9.62
2017-11-04T10:23:39.034Z,9.69
2017-11-04T10:24:37.216Z,9.70
2017-11-04T10:25:37.217Z,9.75
2017-11-04T10:26:37.216Z,9.80
2017-11-04T10:27:37.219Z,9.76
2017-11-04T10:28:37.222Z,9.79
2017-11-04T10:29:37.219Z,9.88
2017-11-04T10:30:37.226Z,9.83
2017-11-04T10:31:37.219Z,9.90
2017-11-04T10:32:37.225Z,9.93
2017-11-04T10:33:37.234Z,9.88
2017-11-04T10:34:37.223Z,9.86
2017-11-04T10:35:37.228Z,9.94
2017-11-04T10:36:37.228Z,10.00
2017-11-04T10:37:37.231Z,9.98
2017-11-04T10:38:37.234Z,10.06
2017-11-04T10:39:37.236Z,10.01
2017-11-04T10:40:37.230Z,10.06
2017-11-04T10:41:37.232Z,10.15
2017-11-04T10:42:37.234Z,10.15
2017-11-04T10:43:37.239Z,10.13
2017-11-04T10:44:37.238Z,10.15
2017-11-04T10:45:37.234Z,10.15
2017-11-04T10:46:37.236Z,10.10
2017-11-04T10:47:37.241Z,10.16
2017-11-04T10:48:37.245Z,10.18
2017-11-04T10:49:37.246Z,10.28
2017-11-04T10:50:37.239Z,10.22
2017-11-04T10:51:37.245Z,10.27
2017-11-04T10:52:37.244Z,10.30
2017-11-04T10:53:37.245Z,10.27
2017-11-04T10:54:37.248Z,10.30
2017-11-04T10:55:37.253Z,10.30
2017-11-04T10:56:37.255Z,10.28
2017-11-04T10:57:37.255Z,10.28
2017-11-04T10:58:37.258Z,10.34
2017-11-04T10:59:37.431Z,10.26
2017-11-04T11:00:37.260Z,10.28
2017-11-04T11:01:37.254Z,10.27
2017-11-04T11:02:37.263Z,10.30
2017-11-04T11:03:37.263Z,10.27
2017-11-04T11:04:37.263Z,10.30
2017-11-04T11:05:37.266Z,10.30
2017-11-04T11:06:37.267Z,10.35
2017-11-04T11:07:37.265Z,10.41
2017-11-04T11:08:37.264Z,10.35
2017-11-04T11:09:37.271Z,10.38
2017-11-04T11:10:37.268Z,10.45
2017-11-04T11:11:37.271Z,10.49
2017-11-04T11:12:37.275Z,10.53
2017-11-04T11:13:37.282Z,10.52
2017-11-04T11:14:37.273Z,10.56
2017-11-04T11:15:37.280Z,10.46
2017-11-04T11:16:37.281Z,10.64
2017-11-04T11:17:37.285Z,10.60
2017-11-04T11:18:37.283Z,10.57
2017-11-04T11:19:37.281Z,10.67
2017-11-04T11:20:37.283Z,10.68
2017-11-04T11:21:37.288Z,10.64
2017-11-04T11:22:37.290Z,10.68
2017-11-04T11:23:37.291Z,10.74
2017-11-04T11:24:37.290Z,10.82
2017-11-04T11:25:37.300Z,10.82
2017-11-04T11:26:37.294Z,10.83
2017-11-04T11:27:37.301Z,10.89
2017-11-04T11:28:37.298Z,11.04
2017-11-04T11:29:37.300Z,11.00
2017-11-04T11:30:37.301Z,11.08
2017-11-04T11:31:37.299Z,11.11
2017-11-04T11:32:37.299Z,11.12
2017-11-04T11:33:37.302Z,11.14
2017-11-04T11:34:37.302Z,11.12
2017-11-04T11:35:37.308Z,11.23
2017-11-04T11:36:37.308Z,11.22
2017-11-04T11:37:37.319Z,11.28
2017-11-04T11:38:37.313Z,11.30
2017-11-04T11:39:37.314Z,11.25
2017-11-04T11:40:37.319Z,11.29
2017-11-04T11:41:37.326Z,11.23
2017-11-04T11:42:37.333Z,11.26
2017-11-04T11:43:37.326Z,11.25
2017-11-04T11:44:37.331Z,11.26
2017-11-04T11:45:37.325Z,11.28
2017-11-04T11:46:37.332Z,11.29
2017-11-04T11:47:37.335Z,11.26
2017-11-04T11:48:37.335Z,11.25
2017-11-04T11:49:37.332Z,11.12
2017-11-04T11:50:37.343Z,11.22
2017-11-04T11:51:37.346Z,11.26
2017-11-04T11:52:37.342Z,11.25
2017-11-04T11:53:38.062Z,11.17
2017-11-04T11:54:37.338Z,11.23
2017-11-04T11:55:37.342Z,11.20
2017-11-04T11:56:37.350Z,11.17
2017-11-04T11:57:37.350Z,11.20
2017-11-04T11:58:37.356Z,11.19
2017-11-04T11:59:37.358Z,11.14
2017-11-04T12:00:37.353Z,11.15
2017-11-04T12:01:37.370Z,11.12
2017-11-04T12:02:37.362Z,11.15
2017-11-04T12:03:37.357Z,11.08
2017-11-04T12:04:37.363Z,11.11
2017-11-04T12:05:37.364Z,11.15
2017-11-04T12:06:37.365Z,11.08
2017-11-04T12:07:37.367Z,11.15
2017-11-04T12:08:37.369Z,11.14
2017-11-04T12:09:37.376Z,11.08
2017-11-04T12:10:37.373Z,11.14
2017-11-04T12:11:37.375Z,11.10
2017-11-04T12:12:37.385Z,11.04
2017-11-04T12:13:37.382Z,11.01
2017-11-04T12:14:37.378Z,11.05
2017-11-04T12:15:37.387Z,11.00
2017-11-04T12:16:37.389Z,10.97
2017-11-04T12:17:37.394Z,10.95
2017-11-04T12:18:37.399Z,10.95
2017-11-04T12:19:37.396Z,10.96
2017-11-04T12:20:37.394Z,10.95
2017-11-04T12:21:37.396Z,10.87
2017-11-04T12:22:37.411Z,10.97
2017-11-04T12:23:37.408Z,10.89
2017-11-04T12:24:37.402Z,10.90
2017-11-04T12:25:37.401Z,10.93
2017-11-04T12:26:37.402Z,10.90
2017-11-04T12:27:37.403Z,10.82
2017-11-04T12:28:37.411Z,10.83
2017-11-04T12:29:37.405Z,10.79
2017-11-04T12:30:37.429Z,10.86
2017-11-04T12:31:37.410Z,10.82
2017-11-04T12:32:37.415Z,10.83
2017-11-04T12:33:37.419Z,10.82
2017-11-04T12:34:37.423Z,10.82
2017-11-04T12:35:37.419Z,10.90
2017-11-04T12:36:37.421Z,10.90
2017-11-04T12:37:37.424Z,10.92
2017-11-04T12:38:37.453Z,10.89
2017-11-04T12:39:37.429Z,10.97
2017-11-04T12:40:38.349Z,10.95
2017-11-04T12:41:37.434Z,10.97
2017-11-04T12:42:37.430Z,11.01
2017-11-04T12:43:37.433Z,10.92
2017-11-04T12:44:37.433Z,11.05
2017-11-04T12:45:37.442Z,11.03
2017-11-04T12:46:37.441Z,11.03
2017-11-04T12:47:37.443Z,11.03
2017-11-04T12:48:37.442Z,11.10
2017-11-04T12:49:37.442Z,11.01
2017-11-04T12:50:37.445Z,11.11
2017-11-04T12:51:37.461Z,11.11
2017-11-04T12:52:37.454Z,11.08
2017-11-04T12:53:37.454Z,11.15
2017-11-04T12:54:37.451Z,11.12
2017-11-04T12:55:37.453Z,11.17
2017-11-04T12:56:37.459Z,11.11
2017-11-04T12:57:37.461Z,11.17
2017-11-04T12:58:37.462Z,11.19
2017-11-04T12:59:37.469Z,11.08
2017-11-04T13:00:37.466Z,11.11
2017-11-04T13:01:37.468Z,11.12
2017-11-04T13:02:37.469Z,11.15
2017-11-04T13:03:37.470Z,11.14
2017-11-04T13:04:37.472Z,11.12
2017-11-04T13:05:37.474Z,11.20
2017-11-04T13:06:37.482Z,11.14
2017-11-04T13:07:37.492Z,11.12
2017-11-04T13:08:37.479Z,11.10
2017-11-04T13:09:37.478Z,11.14
2017-11-04T13:10:37.487Z,11.12
2017-11-04T13:11:37.485Z,11.14
2017-11-04T13:12:37.487Z,11.12
2017-11-04T13:13:37.487Z,11.10